Terminal Aerodrome Forecast
Issued by NWS Duluth, MN

Home | Current Version | Previous Version | Text Only | Print | Product List | Glossary On
Versions: 1 2 3 4 5 6 7 8 9 10 11 12 13 14 15 16 17 18 19 20 21 22 23 24 25 26 27
000
FTUS43 KDLH 170634 AAB
TAFDLH
TAF AMD
KDLH 170634Z 1707/1806 25004KT P6SM OVC009
     FM170900 VRB03KT P6SM BKN008
     FM171300 VRB04KT 4SM BR BKN005
     FM171800 23006KT P6SM BKN005
     FM172100 25006KT P6SM BKN013
     FM180000 24006KT P6SM SCT015=

USA.gov is the U.S. government's official web portal to all federal, state and local government web resources and services.